sensor_id;sensor_type;location;lat;lon;timestamp;temperature;humidity
31133;DHT22;17779;50.942;4.026;2023-09-08T00:01:15;22.10;99.90
31133;DHT22;17779;50.942;4.026;2023-09-08T00:03:41;22.10;99.90
31133;DHT22;17779;50.942;4.026;2023-09-08T00:06:06;22.10;99.90
31133;DHT22;17779;50.942;4.026;2023-09-08T00:08:32;22.00;99.90
31133;DHT22;17779;50.942;4.026;2023-09-08T00:10:57;22.10;99.90
31133;DHT22;17779;50.942;4.026;2023-09-08T00:13:23;22.10;99.90
31133;DHT22;17779;50.942;4.026;2023-09-08T00:15:49;22.00;99.90
31133;DHT22;17779;50.942;4.026;2023-09-08T00:18:14;22.10;99.90
31133;DHT22;17779;50.942;4.026;2023-09-08T00:20:41;22.10;99.90
31133;DHT22;17779;50.942;4.026;2023-09-08T00:23:07;22.20;99.90
31133;DHT22;17779;50.942;4.026;2023-09-08T00:25:33;22.10;99.90
31133;DHT22;17779;50.942;4.026;2023-09-08T00:28:00;22.00;99.90
31133;DHT22;17779;50.942;4.026;2023-09-08T00:30:25;21.80;99.90
31133;DHT22;17779;50.942;4.026;2023-09-08T00:32:51;21.80;99.90
31133;DHT22;17779;50.942;4.026;2023-09-08T00:35:16;21.70;99.90
31133;DHT22;17779;50.942;4.026;2023-09-08T00:37:42;21.80;99.90
31133;DHT22;17779;50.942;4.026;2023-09-08T00:40:08;22.00;99.90
31133;DHT22;17779;50.942;4.026;2023-09-08T00:42:34;22.10;99.90
31133;DHT22;17779;50.942;4.026;2023-09-08T00:44:59;22.20;99.90
31133;DHT22;17779;50.942;4.026;2023-09-08T00:47:25;22.20;99.90
31133;DHT22;17779;50.942;4.026;2023-09-08T00:49:50;22.30;99.90
31133;DHT22;17779;50.942;4.026;2023-09-08T00:52:16;22.20;99.90
31133;DHT22;17779;50.942;4.026;2023-09-08T00:54:42;22.10;99.90
31133;DHT22;17779;50.942;4.026;2023-09-08T00:57:08;22.10;99.90
31133;DHT22;17779;50.942;4.026;2023-09-08T00:59:34;22.10;99.90
31133;DHT22;17779;50.942;4.026;2023-09-08T01:02:00;21.70;99.90
31133;DHT22;17779;50.942;4.026;2023-09-08T01:04:26;21.80;99.90
31133;DHT22;17779;50.942;4.026;2023-09-08T01:06:52;21.70;99.90
31133;DHT22;17779;50.942;4.026;2023-09-08T01:09:17;21.70;99.90
31133;DHT22;17779;50.942;4.026;2023-09-08T01:11:44;21.60;99.90
31133;DHT22;17779;50.942;4.026;2023-09-08T01:14:13;21.60;99.90
31133;DHT22;17779;50.942;4.026;2023-09-08T01:16:39;21.70;99.90
31133;DHT22;17779;50.942;4.026;2023-09-08T01:19:06;21.80;99.90
31133;DHT22;17779;50.942;4.026;2023-09-08T01:26:26;21.20;99.90
31133;DHT22;17779;50.942;4.026;2023-09-08T01:28:54;21.10;99.90
31133;DHT22;17779;50.942;4.026;2023-09-08T01:31:20;21.10;99.90
31133;DHT22;17779;50.942;4.026;2023-09-08T01:33:46;21.10;99.90
31133;DHT22;17779;50.942;4.026;2023-09-08T01:36:12;21.10;99.90
31133;DHT22;17779;50.942;4.026;2023-09-08T01:38:38;21.10;99.90
31133;DHT22;17779;50.942;4.026;2023-09-08T01:41:03;21.20;99.90
31133;DHT22;17779;50.942;4.026;2023-09-08T01:43:29;21.30;99.90
31133;DHT22;17779;50.942;4.026;2023-09-08T01:45:55;21.30;99.90
31133;DHT22;17779;50.942;4.026;2023-09-08T01:48:20;21.30;99.90
31133;DHT22;17779;50.942;4.026;2023-09-08T01:50:46;21.20;99.90
31133;DHT22;17779;50.942;4.026;2023-09-08T01:53:12;21.30;99.90
31133;DHT22;17779;50.942;4.026;2023-09-08T01:55:37;21.30;99.90
31133;DHT22;17779;50.942;4.026;2023-09-08T01:58:03;21.30;99.90
31133;DHT22;17779;50.942;4.026;2023-09-08T02:00:29;21.20;99.90
31133;DHT22;17779;50.942;4.026;2023-09-08T02:02:54;21.00;99.90
31133;DHT22;17779;50.942;4.026;2023-09-08T02:05:20;20.80;99.90
31133;DHT22;17779;50.942;4.026;2023-09-08T02:07:45;20.70;99.90
31133;DHT22;17779;50.942;4.026;2023-09-08T02:10:11;20.60;99.90
31133;DHT22;17779;50.942;4.026;2023-09-08T02:12:37;20.60;99.90
31133;DHT22;17779;50.942;4.026;2023-09-08T02:15:02;20.70;99.90
31133;DHT22;17779;50.942;4.026;2023-09-08T02:17:29;20.60;99.90
31133;DHT22;17779;50.942;4.026;2023-09-08T02:19:54;20.60;99.90
31133;DHT22;17779;50.942;4.026;2023-09-08T02:22:20;20.70;99.90
31133;DHT22;17779;50.942;4.026;2023-09-08T02:24:46;20.80;99.90
31133;DHT22;17779;50.942;4.026;2023-09-08T02:27:11;20.80;99.90
31133;DHT22;17779;50.942;4.026;2023-09-08T02:29:37;21.00;99.90
31133;DHT22;17779;50.942;4.026;2023-09-08T02:32:03;20.80;99.90
31133;DHT22;17779;50.942;4.026;2023-09-08T02:34:28;20.80;99.90
31133;DHT22;17779;50.942;4.026;2023-09-08T02:36:54;20.90;99.90
31133;DHT22;17779;50.942;4.026;2023-09-08T02:39:19;20.70;99.90
31133;DHT22;17779;50.942;4.026;2023-09-08T02:41:45;20.60;99.90
31133;DHT22;17779;50.942;4.026;2023-09-08T02:44:11;20.70;99.90
31133;DHT22;17779;50.942;4.026;2023-09-08T02:46:36;20.70;99.90
31133;DHT22;17779;50.942;4.026;2023-09-08T02:49:02;20.70;99.90
31133;DHT22;17779;50.942;4.026;2023-09-08T02:51:28;20.50;99.90
31133;DHT22;17779;50.942;4.026;2023-09-08T02:53:54;20.60;99.90
31133;DHT22;17779;50.942;4.026;2023-09-08T02:56:19;20.60;99.90
31133;DHT22;17779;50.942;4.026;2023-09-08T02:58:45;20.60;99.90
31133;DHT22;17779;50.942;4.026;2023-09-08T03:01:11;20.60;99.90
31133;DHT22;17779;50.942;4.026;2023-09-08T03:03:38;20.60;99.90
31133;DHT22;17779;50.942;4.026;2023-09-08T03:06:04;20.60;99.90
31133;DHT22;17779;50.942;4.026;2023-09-08T03:08:30;20.50;99.90
31133;DHT22;17779;50.942;4.026;2023-09-08T03:10:56;20.50;99.90
31133;DHT22;17779;50.942;4.026;2023-09-08T03:13:22;20.60;99.90
31133;DHT22;17779;50.942;4.026;2023-09-08T03:15:48;20.60;99.90
31133;DHT22;17779;50.942;4.026;2023-09-08T03:18:13;20.70;99.90
31133;DHT22;17779;50.942;4.026;2023-09-08T03:20:39;20.50;99.90
31133;DHT22;17779;50.942;4.026;2023-09-08T03:23:05;20.60;99.90
31133;DHT22;17779;50.942;4.026;2023-09-08T03:25:31;20.80;99.90
31133;DHT22;17779;50.942;4.026;2023-09-08T03:27:57;20.60;99.90
31133;DHT22;17779;50.942;4.026;2023-09-08T03:30:22;20.60;99.90
31133;DHT22;17779;50.942;4.026;2023-09-08T03:32:48;20.60;99.90
31133;DHT22;17779;50.942;4.026;2023-09-08T03:35:13;20.50;99.90
31133;DHT22;17779;50.942;4.026;2023-09-08T03:37:39;20.50;99.90
31133;DHT22;17779;50.942;4.026;2023-09-08T03:40:05;20.40;99.90
31133;DHT22;17779;50.942;4.026;2023-09-08T03:42:31;20.20;99.90
31133;DHT22;17779;50.942;4.026;2023-09-08T03:44:57;20.10;99.90
31133;DHT22;17779;50.942;4.026;2023-09-08T03:47:23;20.20;99.90
31133;DHT22;17779;50.942;4.026;2023-09-08T03:49:48;20.30;99.90
31133;DHT22;17779;50.942;4.026;2023-09-08T03:52:14;20.30;99.90
31133;DHT22;17779;50.942;4.026;2023-09-08T03:54:39;20.10;99.90
31133;DHT22;17779;50.942;4.026;2023-09-08T03:57:06;20.10;99.90
31133;DHT22;17779;50.942;4.026;2023-09-08T03:59:32;20.00;99.90
31133;DHT22;17779;50.942;4.026;2023-09-08T04:01:57;20.10;99.90
31133;DHT22;17779;50.942;4.026;2023-09-08T04:04:23;20.10;99.90
31133;DHT22;17779;50.942;4.026;2023-09-08T04:06:49;20.20;99.90
31133;DHT22;17779;50.942;4.026;2023-09-08T04:09:14;20.20;99.90
31133;DHT22;17779;50.942;4.026;2023-09-08T04:11:40;20.50;99.90
31133;DHT22;17779;50.942;4.026;2023-09-08T04:14:05;20.40;99.90
31133;DHT22;17779;50.942;4.026;2023-09-08T04:16:31;20.10;99.90
31133;DHT22;17779;50.942;4.026;2023-09-08T04:18:57;20.00;99.90
31133;DHT22;17779;50.942;4.026;2023-09-08T04:21:22;20.20;99.90
31133;DHT22;17779;50.942;4.026;2023-09-08T04:23:48;20.40;99.90
31133;DHT22;17779;50.942;4.026;2023-09-08T04:26:14;20.50;99.90
31133;DHT22;17779;50.942;4.026;2023-09-08T04:28:39;20.50;99.90
31133;DHT22;17779;50.942;4.026;2023-09-08T04:31:05;20.40;99.90
31133;DHT22;17779;50.942;4.026;2023-09-08T04:33:30;20.20;99.90
31133;DHT22;17779;50.942;4.026;2023-09-08T04:35:56;20.00;99.90
31133;DHT22;17779;50.942;4.026;2023-09-08T04:38:22;20.00;99.90
31133;DHT22;17779;50.942;4.026;2023-09-08T04:40:48;20.00;99.90
31133;DHT22;17779;50.942;4.026;2023-09-08T04:43:14;19.90;99.90
31133;DHT22;17779;50.942;4.026;2023-09-08T04:45:39;20.00;99.90
31133;DHT22;17779;50.942;4.026;2023-09-08T04:48:05;19.90;99.90
31133;DHT22;17779;50.942;4.026;2023-09-08T04:50:31;19.70;99.90
31133;DHT22;17779;50.942;4.026;2023-09-08T04:52:56;19.70;99.90
31133;DHT22;17779;50.942;4.026;2023-09-08T04:55:23;19.80;99.90
31133;DHT22;17779;50.942;4.026;2023-09-08T04:57:48;19.70;99.90
31133;DHT22;17779;50.942;4.026;2023-09-08T05:00:14;19.80;99.90
31133;DHT22;17779;50.942;4.026;2023-09-08T05:02:40;19.70;99.90
31133;DHT22;17779;50.942;4.026;2023-09-08T05:05:05;19.70;99.90
31133;DHT22;17779;50.942;4.026;2023-09-08T05:07:31;19.80;99.90
31133;DHT22;17779;50.942;4.026;2023-09-08T05:09:57;19.90;99.90
31133;DHT22;17779;50.942;4.026;2023-09-08T05:12:22;19.90;99.90
31133;DHT22;17779;50.942;4.026;2023-09-08T05:14:48;19.90;99.90
31133;DHT22;17779;50.942;4.026;2023-09-08T05:17:14;19.80;99.90
31133;DHT22;17779;50.942;4.026;2023-09-08T05:19:40;19.80;99.90
31133;DHT22;17779;50.942;4.026;2023-09-08T05:22:06;19.90;99.90
31133;DHT22;17779;50.942;4.026;2023-09-08T05:24:34;20.10;99.90
31133;DHT22;17779;50.942;4.026;2023-09-08T05:27:00;20.00;99.90
31133;DHT22;17779;50.942;4.026;2023-09-08T05:29:26;20.10;99.90
31133;DHT22;17779;50.942;4.026;2023-09-08T05:31:51;20.30;99.90
31133;DHT22;17779;50.942;4.026;2023-09-08T05:34:17;20.30;99.90
31133;DHT22;17779;50.942;4.026;2023-09-08T05:36:43;20.30;99.90
31133;DHT22;17779;50.942;4.026;2023-09-08T05:39:08;20.40;99.90
31133;DHT22;17779;50.942;4.026;2023-09-08T05:41:34;20.50;99.90
31133;DHT22;17779;50.942;4.026;2023-09-08T05:44:00;20.30;99.90
31133;DHT22;17779;50.942;4.026;2023-09-08T05:46:25;20.20;99.90
31133;DHT22;17779;50.942;4.026;2023-09-08T05:48:51;20.30;99.90
31133;DHT22;17779;50.942;4.026;2023-09-08T05:51:17;20.30;99.90
31133;DHT22;17779;50.942;4.026;2023-09-08T05:53:42;20.50;99.90
31133;DHT22;17779;50.942;4.026;2023-09-08T05:56:08;20.70;99.90
31133;DHT22;17779;50.942;4.026;2023-09-08T05:58:34;20.60;99.90
31133;DHT22;17779;50.942;4.026;2023-09-08T06:01:03;20.70;99.90
31133;DHT22;17779;50.942;4.026;2023-09-08T06:03:35;20.80;99.90
31133;DHT22;17779;50.942;4.026;2023-09-08T06:06:01;21.00;99.90
31133;DHT22;17779;50.942;4.026;2023-09-08T06:08:26;21.10;99.90
31133;DHT22;17779;50.942;4.026;2023-09-08T06:10:52;20.90;99.90
31133;DHT22;17779;50.942;4.026;2023-09-08T06:13:18;20.90;99.90
31133;DHT22;17779;50.942;4.026;2023-09-08T06:15:43;20.50;99.90
31133;DHT22;17779;50.942;4.026;2023-09-08T06:18:11;20.30;99.90
31133;DHT22;17779;50.942;4.026;2023-09-08T06:20:37;20.40;99.90
31133;DHT22;17779;50.942;4.026;2023-09-08T06:23:02;20.60;99.90
31133;DHT22;17779;50.942;4.026;2023-09-08T06:25:28;20.60;99.90
31133;DHT22;17779;50.942;4.026;2023-09-08T06:27:54;20.80;99.90
31133;DHT22;17779;50.942;4.026;2023-09-08T06:30:19;20.90;99.90
31133;DHT22;17779;50.942;4.026;2023-09-08T06:32:45;21.00;99.90
31133;DHT22;17779;50.942;4.026;2023-09-08T06:35:11;20.90;99.90
31133;DHT22;17779;50.942;4.026;2023-09-08T06:37:36;20.90;99.90
31133;DHT22;17779;50.942;4.026;2023-09-08T06:40:03;21.00;99.90
31133;DHT22;17779;50.942;4.026;2023-09-08T06:42:31;21.30;99.90
31133;DHT22;17779;50.942;4.026;2023-09-08T06:45:03;21.30;99.90
31133;DHT22;17779;50.942;4.026;2023-09-08T06:47:29;21.50;99.90
31133;DHT22;17779;50.942;4.026;2023-09-08T06:49:57;21.60;99.90
31133;DHT22;17779;50.942;4.026;2023-09-08T06:52:22;21.60;99.90
31133;DHT22;17779;50.942;4.026;2023-09-08T06:54:49;21.60;99.90
31133;DHT22;17779;50.942;4.026;2023-09-08T06:57:17;21.70;99.90
31133;DHT22;17779;50.942;4.026;2023-09-08T06:59:43;21.80;99.90
31133;DHT22;17779;50.942;4.026;2023-09-08T07:02:09;22.00;99.90
31133;DHT22;17779;50.942;4.026;2023-09-08T07:04:35;22.10;99.90
31133;DHT22;17779;50.942;4.026;2023-09-08T07:07:00;22.20;99.90
31133;DHT22;17779;50.942;4.026;2023-09-08T07:09:33;22.40;99.90
31133;DHT22;17779;50.942;4.026;2023-09-08T07:11:58;22.60;99.90
31133;DHT22;17779;50.942;4.026;2023-09-08T07:14:24;22.70;99.90
31133;DHT22;17779;50.942;4.026;2023-09-08T07:16:50;22.70;99.90
31133;DHT22;17779;50.942;4.026;2023-09-08T07:19:15;22.70;99.90
31133;DHT22;17779;50.942;4.026;2023-09-08T07:21:41;22.80;99.90
31133;DHT22;17779;50.942;4.026;2023-09-08T07:24:07;22.90;99.90
31133;DHT22;17779;50.942;4.026;2023-09-08T07:26:32;23.00;99.90
31133;DHT22;17779;50.942;4.026;2023-09-08T07:28:58;23.20;99.90
31133;DHT22;17779;50.942;4.026;2023-09-08T07:31:24;23.70;99.90
31133;DHT22;17779;50.942;4.026;2023-09-08T07:33:50;24.70;99.90
31133;DHT22;17779;50.942;4.026;2023-09-08T07:36:16;26.50;99.90
31133;DHT22;17779;50.942;4.026;2023-09-08T07:38:42;27.40;99.90
31133;DHT22;17779;50.942;4.026;2023-09-08T07:41:07;28.10;99.90
31133;DHT22;17779;50.942;4.026;2023-09-08T07:43:33;29.30;99.90
31133;DHT22;17779;50.942;4.026;2023-09-08T07:45:59;30.10;99.90
31133;DHT22;17779;50.942;4.026;2023-09-08T07:48:24;30.70;99.90
31133;DHT22;17779;50.942;4.026;2023-09-08T07:50:50;31.10;99.90
31133;DHT22;17779;50.942;4.026;2023-09-08T07:53:16;30.90;99.90
31133;DHT22;17779;50.942;4.026;2023-09-08T07:55:41;33.10;99.90
31133;DHT22;17779;50.942;4.026;2023-09-08T07:58:07;33.00;99.90
31133;DHT22;17779;50.942;4.026;2023-09-08T08:00:33;33.00;99.90
31133;DHT22;17779;50.942;4.026;2023-09-08T08:02:59;34.20;99.90
31133;DHT22;17779;50.942;4.026;2023-09-08T08:05:24;35.00;99.90
31133;DHT22;17779;50.942;4.026;2023-09-08T08:07:50;34.70;99.90
31133;DHT22;17779;50.942;4.026;2023-09-08T08:10:16;35.90;99.90
31133;DHT22;17779;50.942;4.026;2023-09-08T08:12:42;36.60;97.80
31133;DHT22;17779;50.942;4.026;2023-09-08T08:15:08;36.10;98.20
31133;DHT22;17779;50.942;4.026;2023-09-08T08:17:38;36.20;98.30
31133;DHT22;17779;50.942;4.026;2023-09-08T08:20:07;36.90;96.00
31133;DHT22;17779;50.942;4.026;2023-09-08T08:22:35;36.00;96.90
31133;DHT22;17779;50.942;4.026;2023-09-08T08:25:00;36.80;96.70
31133;DHT22;17779;50.942;4.026;2023-09-08T08:27:26;36.60;95.70
31133;DHT22;17779;50.942;4.026;2023-09-08T08:29:52;36.50;96.30
31133;DHT22;17779;50.942;4.026;2023-09-08T08:32:17;36.20;95.50
31133;DHT22;17779;50.942;4.026;2023-09-08T08:34:43;36.10;96.50
31133;DHT22;17779;50.942;4.026;2023-09-08T08:37:10;36.30;96.60
31133;DHT22;17779;50.942;4.026;2023-09-08T08:39:36;37.40;95.30
31133;DHT22;17779;50.942;4.026;2023-09-08T08:42:11;37.50;94.50
31133;DHT22;17779;50.942;4.026;2023-09-08T08:44:37;38.70;93.40
31133;DHT22;17779;50.942;4.026;2023-09-08T08:47:03;37.40;93.10
31133;DHT22;17779;50.942;4.026;2023-09-08T08:49:30;38.70;92.80
31133;DHT22;17779;50.942;4.026;2023-09-08T08:51:56;37.30;92.40
31133;DHT22;17779;50.942;4.026;2023-09-08T08:54:23;38.60;92.50
31133;DHT22;17779;50.942;4.026;2023-09-08T08:56:49;40.60;90.30
31133;DHT22;17779;50.942;4.026;2023-09-08T08:59:21;40.80;88.10
31133;DHT22;17779;50.942;4.026;2023-09-08T09:01:47;41.00;85.50
31133;DHT22;17779;50.942;4.026;2023-09-08T09:04:13;41.10;84.40
31133;DHT22;17779;50.942;4.026;2023-09-08T09:06:39;40.80;84.30
31133;DHT22;17779;50.942;4.026;2023-09-08T09:09:05;40.00;84.90
31133;DHT22;17779;50.942;4.026;2023-09-08T09:11:30;39.00;86.60
31133;DHT22;17779;50.942;4.026;2023-09-08T09:13:57;39.20;87.10
31133;DHT22;17779;50.942;4.026;2023-09-08T09:16:23;38.60;88.40
31133;DHT22;17779;50.942;4.026;2023-09-08T09:18:55;38.90;88.50
31133;DHT22;17779;50.942;4.026;2023-09-08T09:21:21;40.20;86.90
31133;DHT22;17779;50.942;4.026;2023-09-08T09:23:47;41.50;84.10
31133;DHT22;17779;50.942;4.026;2023-09-08T09:26:22;39.90;84.90
31133;DHT22;17779;50.942;4.026;2023-09-08T09:28:48;41.60;83.30
31133;DHT22;17779;50.942;4.026;2023-09-08T09:31:14;42.20;80.70
31133;DHT22;17779;50.942;4.026;2023-09-08T09:33:40;40.40;83.10
31133;DHT22;17779;50.942;4.026;2023-09-08T09:36:05;41.70;81.60
31133;DHT22;17779;50.942;4.026;2023-09-08T09:38:31;42.20;79.60
31133;DHT22;17779;50.942;4.026;2023-09-08T09:41:00;43.10;77.90
31133;DHT22;17779;50.942;4.026;2023-09-08T09:43:26;43.00;76.60
31133;DHT22;17779;50.942;4.026;2023-09-08T09:45:53;43.40;73.80
31133;DHT22;17779;50.942;4.026;2023-09-08T09:48:19;43.30;74.40
31133;DHT22;17779;50.942;4.026;2023-09-08T09:50:45;42.50;74.60
31133;DHT22;17779;50.942;4.026;2023-09-08T09:53:11;43.80;72.50
31133;DHT22;17779;50.942;4.026;2023-09-08T09:55:37;43.20;72.40
31133;DHT22;17779;50.942;4.026;2023-09-08T09:58:07;42.30;72.70
31133;DHT22;17779;50.942;4.026;2023-09-08T10:00:33;42.90;71.80
31133;DHT22;17779;50.942;4.026;2023-09-08T10:02:59;43.40;71.20
31133;DHT22;17779;50.942;4.026;2023-09-08T10:05:25;44.30;68.80
31133;DHT22;17779;50.942;4.026;2023-09-08T10:07:51;42.60;71.10
31133;DHT22;17779;50.942;4.026;2023-09-08T10:10:18;43.40;70.20
31133;DHT22;17779;50.942;4.026;2023-09-08T10:12:44;43.10;70.90
31133;DHT22;17779;50.942;4.026;2023-09-08T10:15:12;43.20;70.80
31133;DHT22;17779;50.942;4.026;2023-09-08T10:17:41;43.00;71.00
31133;DHT22;17779;50.942;4.026;2023-09-08T10:20:08;42.60;71.40
31133;DHT22;17779;50.942;4.026;2023-09-08T10:22:38;42.90;69.80
31133;DHT22;17779;50.942;4.026;2023-09-08T10:25:04;40.60;71.80
31133;DHT22;17779;50.942;4.026;2023-09-08T10:27:31;41.70;73.10
31133;DHT22;17779;50.942;4.026;2023-09-08T10:29:59;40.80;72.80
31133;DHT22;17779;50.942;4.026;2023-09-08T10:32:25;40.30;74.20
31133;DHT22;17779;50.942;4.026;2023-09-08T10:34:51;41.90;71.80
31133;DHT22;17779;50.942;4.026;2023-09-08T10:37:22;42.50;69.40
31133;DHT22;17779;50.942;4.026;2023-09-08T10:39:50;41.90;70.80
31133;DHT22;17779;50.942;4.026;2023-09-08T10:44:42;42.10;68.80
31133;DHT22;17779;50.942;4.026;2023-09-08T10:47:07;43.10;68.90
31133;DHT22;17779;50.942;4.026;2023-09-08T10:49:36;41.70;70.60
31133;DHT22;17779;50.942;4.026;2023-09-08T10:52:10;40.90;70.60
31133;DHT22;17779;50.942;4.026;2023-09-08T10:54:47;42.40;70.20
31133;DHT22;17779;50.942;4.026;2023-09-08T10:57:14;42.30;70.80
31133;DHT22;17779;50.942;4.026;2023-09-08T11:00:01;42.70;70.30
31133;DHT22;17779;50.942;4.026;2023-09-08T11:04:57;41.60;71.70
31133;DHT22;17779;50.942;4.026;2023-09-08T11:07:24;42.80;70.30
31133;DHT22;17779;50.942;4.026;2023-09-08T11:09:50;41.10;70.80
31133;DHT22;17779;50.942;4.026;2023-09-08T11:12:16;40.60;72.00
31133;DHT22;17779;50.942;4.026;2023-09-08T11:14:43;39.10;74.80
31133;DHT22;17779;50.942;4.026;2023-09-08T11:17:09;39.00;74.10
31133;DHT22;17779;50.942;4.026;2023-09-08T11:19:47;39.90;74.40
31133;DHT22;17779;50.942;4.026;2023-09-08T11:22:14;39.90;72.10
31133;DHT22;17779;50.942;4.026;2023-09-08T11:24:43;40.30;71.40
31133;DHT22;17779;50.942;4.026;2023-09-08T11:27:09;39.00;72.20
31133;DHT22;17779;50.942;4.026;2023-09-08T11:29:36;39.30;72.80
31133;DHT22;17779;50.942;4.026;2023-09-08T11:32:02;38.50;72.60
31133;DHT22;17779;50.942;4.026;2023-09-08T11:34:29;37.40;74.80
31133;DHT22;17779;50.942;4.026;2023-09-08T11:36:56;36.10;76.90
31133;DHT22;17779;50.942;4.026;2023-09-08T11:39:25;36.40;78.20
31133;DHT22;17779;50.942;4.026;2023-09-08T11:41:51;36.00;79.20
31133;DHT22;17779;50.942;4.026;2023-09-08T11:44:17;35.80;80.00
31133;DHT22;17779;50.942;4.026;2023-09-08T11:46:43;37.10;79.60
31133;DHT22;17779;50.942;4.026;2023-09-08T11:49:09;38.00;76.50
31133;DHT22;17779;50.942;4.026;2023-09-08T11:51:34;38.60;75.00
31133;DHT22;17779;50.942;4.026;2023-09-08T11:54:00;39.90;72.90
31133;DHT22;17779;50.942;4.026;2023-09-08T11:56:26;39.50;73.40
31133;DHT22;17779;50.942;4.026;2023-09-08T11:58:52;38.40;75.70
31133;DHT22;17779;50.942;4.026;2023-09-08T12:01:18;38.40;76.90
31133;DHT22;17779;50.942;4.026;2023-09-08T12:03:51;39.30;74.20
31133;DHT22;17779;50.942;4.026;2023-09-08T12:06:17;40.80;70.90
31133;DHT22;17779;50.942;4.026;2023-09-08T12:08:42;41.60;68.80
31133;DHT22;17779;50.942;4.026;2023-09-08T12:11:09;41.50;68.10
31133;DHT22;17779;50.942;4.026;2023-09-08T12:13:35;41.80;68.00
31133;DHT22;17779;50.942;4.026;2023-09-08T12:16:01;43.00;66.50
31133;DHT22;17779;50.942;4.026;2023-09-08T12:18:39;42.80;66.60
31133;DHT22;17779;50.942;4.026;2023-09-08T12:21:04;42.30;66.60
31133;DHT22;17779;50.942;4.026;2023-09-08T12:23:30;41.80;67.70
31133;DHT22;17779;50.942;4.026;2023-09-08T12:25:57;42.00;67.50
31133;DHT22;17779;50.942;4.026;2023-09-08T12:28:24;42.40;67.20
31133;DHT22;17779;50.942;4.026;2023-09-08T12:30:55;41.30;68.00
31133;DHT22;17779;50.942;4.026;2023-09-08T12:33:21;41.30;69.20
31133;DHT22;17779;50.942;4.026;2023-09-08T12:35:47;41.70;68.20
31133;DHT22;17779;50.942;4.026;2023-09-08T12:38:16;42.30;66.90
31133;DHT22;17779;50.942;4.026;2023-09-08T12:40:42;42.90;65.50
31133;DHT22;17779;50.942;4.026;2023-09-08T12:43:07;42.00;67.00
31133;DHT22;17779;50.942;4.026;2023-09-08T12:45:33;42.50;66.50
31133;DHT22;17779;50.942;4.026;2023-09-08T12:47:59;41.90;66.80
31133;DHT22;17779;50.942;4.026;2023-09-08T12:50:26;42.00;67.40
31133;DHT22;17779;50.942;4.026;2023-09-08T12:52:52;42.80;66.40
31133;DHT22;17779;50.942;4.026;2023-09-08T12:55:18;43.50;64.70
31133;DHT22;17779;50.942;4.026;2023-09-08T12:57:44;44.00;63.50
31133;DHT22;17779;50.942;4.026;2023-09-08T13:00:10;42.70;65.00
31133;DHT22;17779;50.942;4.026;2023-09-08T13:02:35;42.70;65.60
31133;DHT22;17779;50.942;4.026;2023-09-08T13:05:02;43.40;65.80
31133;DHT22;17779;50.942;4.026;2023-09-08T13:07:28;42.00;66.70
31133;DHT22;17779;50.942;4.026;2023-09-08T13:09:54;42.10;67.80
31133;DHT22;17779;50.942;4.026;2023-09-08T13:12:19;42.60;66.10
31133;DHT22;17779;50.942;4.026;2023-09-08T13:14:45;42.80;66.50
31133;DHT22;17779;50.942;4.026;2023-09-08T13:17:11;41.10;66.70
31133;DHT22;17779;50.942;4.026;2023-09-08T13:19:36;40.40;68.20
31133;DHT22;17779;50.942;4.026;2023-09-08T13:22:06;38.90;69.20
31133;DHT22;17779;50.942;4.026;2023-09-08T13:24:32;37.70;72.20
31133;DHT22;17779;50.942;4.026;2023-09-08T13:26:59;36.60;75.80
31133;DHT22;17779;50.942;4.026;2023-09-08T13:29:25;36.20;78.30
31133;DHT22;17779;50.942;4.026;2023-09-08T13:31:53;35.60;80.20
31133;DHT22;17779;50.942;4.026;2023-09-08T13:34:19;35.10;80.40
31133;DHT22;17779;50.942;4.026;2023-09-08T13:36:45;35.00;82.10
31133;DHT22;17779;50.942;4.026;2023-09-08T13:39:10;34.90;83.70
31133;DHT22;17779;50.942;4.026;2023-09-08T13:41:52;34.40;85.10
31133;DHT22;17779;50.942;4.026;2023-09-08T13:44:18;33.60;88.50
31133;DHT22;17779;50.942;4.026;2023-09-08T13:46:45;33.40;90.40
31133;DHT22;17779;50.942;4.026;2023-09-08T13:49:11;33.50;90.30
31133;DHT22;17779;50.942;4.026;2023-09-08T13:51:37;33.90;89.20
31133;DHT22;17779;50.942;4.026;2023-09-08T13:54:02;33.50;90.10
31133;DHT22;17779;50.942;4.026;2023-09-08T13:56:28;33.50;90.80
31133;DHT22;17779;50.942;4.026;2023-09-08T13:58:53;33.10;91.70
31133;DHT22;17779;50.942;4.026;2023-09-08T14:01:19;32.70;92.50
31133;DHT22;17779;50.942;4.026;2023-09-08T14:03:45;32.40;93.40
31133;DHT22;17779;50.942;4.026;2023-09-08T14:06:10;32.70;92.90
31133;DHT22;17779;50.942;4.026;2023-09-08T14:08:36;33.00;93.30
31133;DHT22;17779;50.942;4.026;2023-09-08T14:11:02;33.20;92.70
31133;DHT22;17779;50.942;4.026;2023-09-08T14:13:27;33.50;92.20
31133;DHT22;17779;50.942;4.026;2023-09-08T14:15:53;33.40;91.80
31133;DHT22;17779;50.942;4.026;2023-09-08T14:18:19;33.40;91.90
31133;DHT22;17779;50.942;4.026;2023-09-08T14:20:44;33.30;92.30
31133;DHT22;17779;50.942;4.026;2023-09-08T14:23:10;33.40;92.30
31133;DHT22;17779;50.942;4.026;2023-09-08T14:25:36;33.40;92.50
31133;DHT22;17779;50.942;4.026;2023-09-08T14:28:01;33.00;93.50
31133;DHT22;17779;50.942;4.026;2023-09-08T14:30:30;32.70;94.30
31133;DHT22;17779;50.942;4.026;2023-09-08T14:32:56;32.50;94.10
31133;DHT22;17779;50.942;4.026;2023-09-08T14:35:21;32.60;94.20
31133;DHT22;17779;50.942;4.026;2023-09-08T14:37:47;32.40;92.70
31133;DHT22;17779;50.942;4.026;2023-09-08T14:40:15;32.30;93.50
31133;DHT22;17779;50.942;4.026;2023-09-08T14:42:41;32.20;93.20
31133;DHT22;17779;50.942;4.026;2023-09-08T14:45:07;32.20;94.10
31133;DHT22;17779;50.942;4.026;2023-09-08T14:47:33;32.50;92.50
31133;DHT22;17779;50.942;4.026;2023-09-08T14:49:59;32.50;91.10
31133;DHT22;17779;50.942;4.026;2023-09-08T14:52:24;32.60;90.60
31133;DHT22;17779;50.942;4.026;2023-09-08T14:54:50;32.30;91.50
31133;DHT22;17779;50.942;4.026;2023-09-08T14:57:16;32.40;91.10
31133;DHT22;17779;50.942;4.026;2023-09-08T14:59:41;32.40;91.40
31133;DHT22;17779;50.942;4.026;2023-09-08T15:02:10;32.50;91.30
31133;DHT22;17779;50.942;4.026;2023-09-08T15:04:36;32.70;91.30
31133;DHT22;17779;50.942;4.026;2023-09-08T15:07:02;32.80;91.20
31133;DHT22;17779;50.942;4.026;2023-09-08T15:09:28;32.80;91.50
31133;DHT22;17779;50.942;4.026;2023-09-08T15:11:54;32.80;92.20
31133;DHT22;17779;50.942;4.026;2023-09-08T15:14:19;32.10;93.20
31133;DHT22;17779;50.942;4.026;2023-09-08T15:16:45;31.90;94.10
31133;DHT22;17779;50.942;4.026;2023-09-08T15:19:10;31.60;95.00
31133;DHT22;17779;50.942;4.026;2023-09-08T15:21:36;31.50;95.90
31133;DHT22;17779;50.942;4.026;2023-09-08T15:24:02;31.50;95.60
31133;DHT22;17779;50.942;4.026;2023-09-08T15:26:27;31.30;96.10
31133;DHT22;17779;50.942;4.026;2023-09-08T15:28:53;31.50;96.40
31133;DHT22;17779;50.942;4.026;2023-09-08T15:31:19;31.50;96.20
31133;DHT22;17779;50.942;4.026;2023-09-08T15:33:45;31.50;96.50